createdAt,value
2018-11-01T00:00:19.675Z,6.00
2018-11-01T00:02:55.343Z,7.30
2018-11-01T00:05:30.240Z,4.80
2018-11-01T00:08:05.901Z,2.70
2018-11-01T00:10:40.888Z,9.50
2018-11-01T00:13:15.801Z,8.37
2018-11-01T00:15:50.905Z,3.60
2018-11-01T00:18:25.795Z,10.77
2018-11-01T00:21:01.169Z,5.40
2018-11-01T00:23:37.548Z,4.50
2018-11-01T00:26:12.874Z,7.30
2018-11-01T00:28:47.906Z,4.70
2018-11-01T00:31:24.294Z,8.90
2018-11-01T00:33:59.825Z,3.23
2018-11-01T00:36:35.155Z,9.43
2018-11-01T00:39:14.706Z,6.93
2018-11-01T00:41:54.113Z,3.83
2018-11-01T00:44:29.932Z,6.93
2018-11-01T00:47:06.116Z,5.40
2018-11-01T00:49:41.061Z,8.10
2018-11-01T00:52:16.085Z,4.60
2018-11-01T00:54:52.502Z,3.80
2018-11-01T00:57:27.697Z,3.30
2018-11-01T01:00:03.858Z,6.13
2018-11-01T01:02:43.409Z,6.83
2018-11-01T01:05:18.483Z,9.70
2018-11-01T01:07:53.568Z,5.70
2018-11-01T01:10:29.482Z,3.90
2018-11-01T01:13:04.432Z,9.10
2018-11-01T01:15:39.506Z,8.77
2018-11-01T01:18:14.980Z,6.03
2018-11-01T01:20:50.597Z,10.70
2018-11-01T01:23:26.012Z,7.33
2018-11-01T01:26:00.994Z,6.17
2018-11-01T01:28:35.877Z,9.87
2018-11-01T01:31:10.847Z,9.67
2018-11-01T01:33:46.017Z,7.37
2018-11-01T01:36:21.085Z,3.63
2018-11-01T01:38:56.906Z,13.67
2018-11-01T01:41:32.666Z,6.67
2018-11-01T01:44:08.343Z,8.50
2018-11-01T01:46:43.109Z,7.43
2018-11-01T01:49:18.821Z,7.53
2018-11-01T01:51:53.695Z,9.80
2018-11-01T01:54:31.027Z,8.77
2018-11-01T01:57:06.661Z,9.17
2018-11-01T01:59:42.167Z,6.90
2018-11-01T02:02:17.145Z,8.43
2018-11-01T02:04:52.073Z,8.00
2018-11-01T02:07:27.182Z,8.17
2018-11-01T02:10:02.134Z,4.83
2018-11-01T02:12:38.294Z,5.67
2018-11-01T02:15:15.531Z,7.33
2018-11-01T02:17:50.409Z,7.80
2018-11-01T02:20:25.457Z,6.60
2018-11-01T02:23:01.142Z,12.40
2018-11-01T02:25:36.128Z,9.13
2018-11-01T02:28:15.555Z,4.40
2018-11-01T02:30:50.531Z,6.27
2018-11-01T02:33:26.057Z,12.87
2018-11-01T02:36:01.392Z,11.77
2018-11-01T02:38:36.617Z,8.03
2018-11-01T02:41:11.638Z,6.27
2018-11-01T02:43:47.129Z,11.93
2018-11-01T02:46:23.245Z,8.90
2018-11-01T02:48:58.552Z,6.17
2018-11-01T02:51:33.762Z,7.70
2018-11-01T02:54:09.928Z,5.97
2018-11-01T02:56:46.474Z,5.20
2018-11-01T02:59:21.953Z,13.73
2018-11-01T03:01:57.708Z,7.93
2018-11-01T03:04:32.640Z,8.33
2018-11-01T03:07:07.766Z,5.57
2018-11-01T03:09:43.588Z,6.77
2018-11-01T03:12:18.987Z,10.33
2018-11-01T03:14:55.390Z,7.80
2018-11-01T03:17:31.171Z,12.23
2018-11-01T03:20:07.104Z,8.23
2018-11-01T03:22:42.485Z,12.00
2018-11-01T03:25:17.954Z,17.50
2018-11-01T03:27:53.355Z,6.07
2018-11-01T03:30:29.310Z,12.83
2018-11-01T03:33:04.446Z,9.17
2018-11-01T03:35:40.542Z,7.53
2018-11-01T03:38:16.972Z,5.70
2018-11-01T03:40:51.693Z,13.80
2018-11-01T03:43:28.313Z,5.77
2018-11-01T03:46:04.498Z,10.60
2018-11-01T03:48:40.186Z,6.87
2018-11-01T03:51:15.342Z,6.40
2018-11-01T03:53:52.032Z,9.73
2018-11-01T03:56:28.667Z,11.67
2018-11-01T03:59:05.050Z,7.73
2018-11-01T04:01:40.516Z,7.80
2018-11-01T04:04:16.010Z,10.93
2018-11-01T04:06:51.096Z,9.27
2018-11-01T04:09:26.219Z,6.83
2018-11-01T04:12:01.270Z,9.83
2018-11-01T04:14:36.220Z,9.40
2018-11-01T04:17:12.642Z,11.00
2018-11-01T04:19:48.888Z,14.63
2018-11-01T04:22:24.779Z,6.70
2018-11-01T04:24:59.724Z,8.07
2018-11-01T04:27:35.599Z,8.13
2018-11-01T04:30:10.637Z,8.43
2018-11-01T04:32:46.545Z,8.70
2018-11-01T04:35:22.271Z,6.90
2018-11-01T04:37:58.150Z,13.17
2018-11-01T04:40:35.226Z,6.10
2018-11-01T04:43:11.736Z,6.30
2018-11-01T04:45:46.677Z,11.00
2018-11-01T04:48:23.912Z,8.67
2018-11-01T04:51:00.873Z,5.07
2018-11-01T04:53:36.544Z,9.23
2018-11-01T04:56:11.581Z,8.93
2018-11-01T04:58:47.435Z,16.47
2018-11-01T05:01:23.573Z,10.73
2018-11-01T05:03:59.119Z,13.07
2018-11-01T05:06:34.874Z,10.77
2018-11-01T05:09:10.249Z,9.63
2018-11-01T05:11:45.222Z,8.30
2018-11-01T05:14:21.376Z,6.90
2018-11-01T05:16:56.322Z,9.40
2018-11-01T05:19:31.701Z,12.77
2018-11-01T05:22:07.371Z,7.17
2018-11-01T05:24:43.306Z,14.07
2018-11-01T05:27:18.570Z,5.57
2018-11-01T05:29:53.990Z,11.13
2018-11-01T05:32:29.089Z,10.90
2018-11-01T05:35:11.662Z,6.37
2018-11-01T05:37:46.851Z,13.03
2018-11-01T05:40:22.273Z,10.00
2018-11-01T05:42:58.530Z,4.90
2018-11-01T05:45:33.440Z,8.43
2018-11-01T05:48:08.876Z,8.83
2018-11-01T05:50:45.792Z,16.00
2018-11-01T05:53:21.616Z,10.60
2018-11-01T05:55:56.519Z,7.20
2018-11-01T05:58:32.884Z,14.83
2018-11-01T06:01:12.181Z,10.37
2018-11-01T06:03:47.708Z,14.23
2018-11-01T06:06:23.905Z,13.50
2018-11-01T06:08:59.747Z,7.90
2018-11-01T06:11:35.885Z,9.53
2018-11-01T06:14:10.870Z,12.00
2018-11-01T06:16:46.561Z,7.87
2018-11-01T06:19:23.315Z,7.17
2018-11-01T06:21:58.336Z,15.07
2018-11-01T06:24:33.296Z,9.50
2018-11-01T06:27:08.310Z,9.13
2018-11-01T06:29:44.895Z,7.97
2018-11-01T06:32:19.857Z,6.20
2018-11-01T06:34:58.916Z,13.23
2018-11-01T06:37:34.603Z,14.40
2018-11-01T06:40:09.721Z,10.30
2018-11-01T06:42:45.941Z,9.30
2018-11-01T06:45:20.799Z,9.10
2018-11-01T06:47:56.448Z,10.97
2018-11-01T06:50:31.573Z,8.07
2018-11-01T06:53:07.381Z,17.83
2018-11-01T06:55:43.953Z,10.80
2018-11-01T06:58:20.521Z,7.60
2018-11-01T07:00:55.929Z,6.43
2018-11-01T07:03:32.455Z,11.73
2018-11-01T07:06:08.512Z,7.87
2018-11-01T07:08:45.633Z,5.17
2018-11-01T07:11:21.497Z,13.10
2018-11-01T07:13:56.514Z,11.03
2018-11-01T07:16:31.462Z,3.47
2018-11-01T07:19:07.558Z,8.40
2018-11-01T07:21:47.953Z,4.43
2018-11-01T07:24:22.874Z,6.83
2018-11-01T07:26:58.331Z,4.57
2018-11-01T07:29:33.310Z,6.17
2018-11-01T07:32:09.089Z,8.10
2018-11-01T07:34:45.136Z,6.80
2018-11-01T07:37:21.147Z,5.97
2018-11-01T07:39:57.896Z,6.83
2018-11-01T07:42:32.829Z,5.37
2018-11-01T07:45:09.409Z,8.50
2018-11-01T07:47:44.925Z,5.20
2018-11-01T07:50:19.996Z,7.10
2018-11-01T07:52:56.497Z,9.40
2018-11-01T07:55:31.601Z,6.10
2018-11-01T07:58:06.875Z,8.63
2018-11-01T08:00:42.260Z,11.30
2018-11-01T08:03:17.729Z,8.70
2018-11-01T08:05:53.026Z,5.97
2018-11-01T08:08:27.928Z,8.87
2018-11-01T08:11:02.709Z,10.37
2018-11-01T08:13:38.684Z,6.90
2018-11-01T08:16:13.581Z,12.87
2018-11-01T08:18:49.101Z,9.43
2018-11-01T08:21:24.696Z,13.90
2018-11-01T08:24:00.273Z,8.00
2018-11-01T08:26:35.242Z,5.70
2018-11-01T08:29:10.363Z,7.90
2018-11-01T08:31:46.293Z,7.10
2018-11-01T08:34:21.465Z,9.93
2018-11-01T08:36:58.762Z,8.53
2018-11-01T08:39:34.780Z,8.30
2018-11-01T08:42:10.145Z,7.20
2018-11-01T08:44:45.856Z,12.00
2018-11-01T08:47:20.877Z,10.57
2018-11-01T08:49:55.997Z,18.27
2018-11-01T08:52:31.690Z,6.97
2018-11-01T08:55:07.906Z,12.63
2018-11-01T08:57:44.855Z,14.67
2018-11-01T09:00:19.808Z,9.23
2018-11-01T09:02:55.663Z,9.10
2018-11-01T09:05:30.768Z,6.27
2018-11-01T09:08:06.372Z,8.40
2018-11-01T09:10:43.331Z,11.37
2018-11-01T09:13:19.048Z,8.87
2018-11-01T09:15:54.693Z,11.10
2018-11-01T09:18:29.664Z,7.03
2018-11-01T09:21:05.269Z,10.03
2018-11-01T09:23:40.842Z,9.90
2018-11-01T09:26:16.496Z,10.30
2018-11-01T09:28:53.078Z,5.13
2018-11-01T09:31:28.312Z,6.23
2018-11-01T09:34:05.017Z,6.40
2018-11-01T09:36:41.337Z,6.30
2018-11-01T09:39:17.245Z,8.30
2018-11-01T09:41:52.848Z,6.70
2018-11-01T09:44:28.570Z,12.47
2018-11-01T09:47:05.051Z,6.13
2018-11-01T09:49:39.755Z,8.60
2018-11-01T09:52:15.144Z,9.47
2018-11-01T09:54:50.260Z,7.83
2018-11-01T09:57:25.424Z,10.93
2018-11-01T10:00:01.747Z,11.90
2018-11-01T10:02:37.501Z,9.53
2018-11-01T10:05:13.666Z,12.00
2018-11-01T10:07:49.467Z,6.37
2018-11-01T10:10:24.760Z,8.70
2018-11-01T10:13:00.250Z,12.20
2018-11-01T10:15:36.014Z,8.80
2018-11-01T10:18:12.828Z,6.00
2018-11-01T10:20:47.475Z,8.53
2018-11-01T10:23:23.789Z,5.10
2018-11-01T10:25:59.421Z,6.77
2018-11-01T10:28:35.120Z,10.90
2018-11-01T10:31:10.443Z,9.20
2018-11-01T10:33:46.022Z,7.93
2018-11-01T10:36:21.578Z,6.30
2018-11-01T10:38:57.372Z,13.20
2018-11-01T10:41:32.350Z,8.57
2018-11-01T10:44:07.510Z,6.83
2018-11-01T10:46:43.848Z,6.50
2018-11-01T10:49:20.251Z,5.40
2018-11-01T10:51:57.037Z,11.93
2018-11-01T10:54:31.905Z,6.73
2018-11-01T10:57:06.961Z,10.70
2018-11-01T10:59:41.970Z,9.23
2018-11-01T11:02:22.423Z,15.37
2018-11-01T11:04:57.505Z,12.13
2018-11-01T11:07:32.700Z,12.00
2018-11-01T11:10:08.257Z,13.93
2018-11-01T11:12:44.059Z,11.60
2018-11-01T11:15:18.989Z,11.43
2018-11-01T11:17:54.332Z,14.17
2018-11-01T11:20:29.451Z,10.97
2018-11-01T11:23:04.378Z,19.03
2018-11-01T11:25:39.278Z,18.77
2018-11-01T11:28:14.663Z,16.93
2018-11-01T11:30:49.458Z,9.77
2018-11-01T11:33:24.978Z,11.90
2018-11-01T11:36:01.094Z,13.47
2018-11-01T11:38:38.381Z,15.77
2018-11-01T11:41:13.908Z,15.60
2018-11-01T11:43:50.090Z,13.37
2018-11-01T11:46:26.948Z,15.63
2018-11-01T11:49:03.821Z,13.00
2018-11-01T11:51:39.074Z,24.17
2018-11-01T11:54:13.917Z,11.30
2018-11-01T11:56:49.736Z,10.37
2018-11-01T11:59:25.811Z,21.20
2018-11-01T12:02:01.090Z,88.57
2018-11-01T12:04:36.977Z,17.30
2018-11-01T12:07:12.054Z,10.80
2018-11-01T12:09:47.759Z,22.73
2018-11-01T12:12:23.420Z,17.77
2018-11-01T12:14:59.272Z,14.53
2018-11-01T12:17:36.580Z,9.37
2018-11-01T12:20:13.789Z,11.63
2018-11-01T12:22:48.913Z,31.53
2018-11-01T12:25:25.256Z,25.10
2018-11-01T12:28:00.821Z,10.03
2018-11-01T12:30:35.842Z,22.00
2018-11-01T12:33:10.967Z,20.50
2018-11-01T12:35:46.536Z,26.60
2018-11-01T12:38:21.690Z,18.03
2018-11-01T12:40:56.901Z,12.60
2018-11-01T12:43:32.441Z,11.17
2018-11-01T12:46:08.482Z,11.73
2018-11-01T12:48:48.064Z,15.13
2018-11-01T12:51:23.506Z,13.57
2018-11-01T12:53:58.840Z,21.90
2018-11-01T12:56:34.792Z,14.63
2018-11-01T12:59:10.820Z,20.27
2018-11-01T13:01:50.592Z,19.43
2018-11-01T13:04:25.833Z,15.97
2018-11-01T13:07:01.654Z,23.53
2018-11-01T13:09:37.825Z,19.80
2018-11-01T13:12:13.018Z,24.57
2018-11-01T13:14:48.907Z,17.97
2018-11-01T13:17:24.241Z,18.67
2018-11-01T13:19:59.360Z,23.57
2018-11-01T13:22:34.637Z,13.23
2018-11-01T13:25:10.806Z,20.30
2018-11-01T13:27:46.979Z,11.80
2018-11-01T13:30:26.378Z,17.40
2018-11-01T13:33:01.491Z,22.13
2018-11-01T13:35:36.667Z,27.33
2018-11-01T13:38:12.386Z,18.07
2018-11-01T13:40:48.071Z,18.43
2018-11-01T13:43:24.045Z,18.83
2018-11-01T13:46:00.653Z,17.73
2018-11-01T13:48:36.698Z,18.13
2018-11-01T13:51:12.045Z,21.60
2018-11-01T13:53:48.513Z,17.60
2018-11-01T13:56:24.163Z,18.73
2018-11-01T13:58:59.767Z,11.30
2018-11-01T14:01:35.547Z,15.67
2018-11-01T14:04:10.853Z,12.10
2018-11-01T14:06:47.097Z,20.13
2018-11-01T14:09:22.833Z,23.83
2018-11-01T14:11:58.000Z,17.03
2018-11-01T14:14:33.760Z,15.03
2018-11-01T14:17:09.341Z,22.97
2018-11-01T14:19:45.878Z,17.30
2018-11-01T14:22:21.781Z,15.20
2018-11-01T14:24:57.710Z,21.00
2018-11-01T14:27:33.540Z,17.30
2018-11-01T14:30:11.551Z,12.50
2018-11-01T14:32:52.390Z,17.10
2018-11-01T14:35:27.464Z,24.10
2018-11-01T14:38:03.044Z,25.27
2018-11-01T14:40:39.045Z,18.30
2018-11-01T14:43:15.361Z,13.73
2018-11-01T14:45:50.686Z,13.33
2018-11-01T14:48:26.874Z,14.97
2018-11-01T14:51:02.541Z,20.67
2018-11-01T14:53:38.878Z,22.60
2018-11-01T14:56:15.297Z,15.87
2018-11-01T14:58:50.615Z,27.47
2018-11-01T15:01:25.904Z,19.80
2018-11-01T15:04:01.033Z,17.13
2018-11-01T15:06:36.992Z,20.70
2018-11-01T15:09:13.434Z,26.20
2018-11-01T15:11:49.941Z,24.37
2018-11-01T15:14:26.598Z,16.37
2018-11-01T15:17:02.081Z,26.77
2018-11-01T15:19:37.761Z,22.73
2018-11-01T15:22:14.583Z,26.97
2018-11-01T15:24:49.797Z,17.87
2018-11-01T15:27:25.374Z,21.60
2018-11-01T15:30:00.502Z,17.63
2018-11-01T15:32:36.074Z,26.53
2018-11-01T15:35:11.323Z,16.43
2018-11-01T15:37:47.463Z,15.10
2018-11-01T15:40:22.612Z,15.23
2018-11-01T15:42:57.454Z,15.87
2018-11-01T15:45:32.668Z,14.93
2018-11-01T15:48:07.874Z,18.60
2018-11-01T15:50:43.421Z,17.13
2018-11-01T15:53:18.554Z,18.87
2018-11-01T15:55:53.470Z,20.20
2018-11-01T15:58:29.603Z,29.33
2018-11-01T16:01:05.297Z,23.13
2018-11-01T16:03:40.507Z,22.87
2018-11-01T16:06:15.640Z,23.10
2018-11-01T16:08:52.028Z,27.47
2018-11-01T16:18:26.163Z,38.33
2018-11-01T16:21:01.575Z,31.23
2018-11-01T16:23:37.143Z,22.57
2018-11-01T16:26:12.910Z,26.70
2018-11-01T16:28:48.689Z,22.93
2018-11-01T16:31:23.757Z,24.43
2018-11-01T16:33:59.427Z,15.57
2018-11-01T16:36:36.139Z,22.97
2018-11-01T16:39:12.843Z,34.93
2018-11-01T16:41:49.055Z,29.20
2018-11-01T16:44:24.893Z,23.90
2018-11-01T16:47:01.282Z,17.83
2018-11-01T16:49:37.228Z,23.47
2018-11-01T16:52:13.855Z,18.43
2018-11-01T16:54:53.852Z,25.00
2018-11-01T16:57:29.522Z,22.03
2018-11-01T17:00:06.152Z,19.30
2018-11-01T17:02:42.093Z,25.47
2018-11-01T17:05:17.253Z,21.87
2018-11-01T17:08:55.098Z,30.23
2018-11-01T17:11:30.741Z,26.07
2018-11-01T17:14:07.243Z,13.63
2018-11-01T17:16:42.370Z,22.13
2018-11-01T17:19:18.574Z,31.23
2018-11-01T17:21:53.876Z,23.53
2018-11-01T17:24:29.625Z,23.53
2018-11-01T17:27:05.238Z,20.80
2018-11-01T17:29:41.802Z,23.00
2018-11-01T17:32:16.932Z,22.87
2018-11-01T17:34:52.248Z,27.83
2018-11-01T17:37:28.562Z,24.33
2018-11-01T17:40:03.826Z,26.43
2018-11-01T17:42:39.653Z,29.60
2018-11-01T17:45:15.022Z,27.97
2018-11-01T17:47:51.156Z,26.50
2018-11-01T17:50:27.008Z,18.63
2018-11-01T17:53:02.848Z,33.17
2018-11-01T17:55:38.369Z,21.93
2018-11-01T17:58:13.415Z,28.10
2018-11-01T18:01:01.377Z,22.03
2018-11-01T18:03:45.784Z,35.23
2018-11-01T18:06:21.369Z,24.23
2018-11-01T18:08:57.004Z,23.20
2018-11-01T18:11:31.702Z,30.17
2018-11-01T18:14:06.894Z,27.03
2018-11-01T18:16:41.723Z,24.73
2018-11-01T18:19:16.750Z,30.23
2018-11-01T18:21:51.775Z,33.80
2018-11-01T18:24:26.827Z,26.23
2018-11-01T18:27:01.828Z,22.70
2018-11-01T18:29:37.948Z,23.67
2018-11-01T18:32:13.177Z,22.57
2018-11-01T18:34:49.103Z,21.23
2018-11-01T18:37:23.912Z,21.30
2018-11-01T18:39:58.779Z,18.03
2018-11-01T18:42:34.067Z,26.73
2018-11-01T18:45:10.698Z,32.20
2018-11-01T18:47:46.439Z,12.50
2018-11-01T18:50:26.567Z,24.00
2018-11-01T18:53:01.522Z,18.67
2018-11-01T18:55:37.084Z,25.27
2018-11-01T18:58:12.133Z,29.13
2018-11-01T19:00:47.925Z,32.20
2018-11-01T19:03:29.875Z,22.47
2018-11-01T19:06:05.927Z,21.03
2018-11-01T19:08:41.690Z,24.43
2018-11-01T19:11:17.142Z,28.20
2018-11-01T19:13:53.130Z,25.60
2018-11-01T19:16:28.078Z,18.60
2018-11-01T19:19:03.797Z,26.23
2018-11-01T19:21:38.939Z,26.83
2018-11-01T19:24:14.463Z,25.50
2018-11-01T19:26:49.407Z,32.53
2018-11-01T19:29:25.522Z,28.40
2018-11-01T19:32:01.229Z,24.97
2018-11-01T19:34:36.701Z,19.60
2018-11-01T19:37:11.436Z,29.73
2018-11-01T19:39:50.484Z,19.10
2018-11-01T19:42:25.447Z,21.40
2018-11-01T19:45:00.967Z,23.57
2018-11-01T19:47:36.590Z,20.63
2018-11-01T19:50:13.456Z,20.30
2018-11-01T19:52:49.873Z,23.43
2018-11-01T19:55:24.743Z,21.60
2018-11-01T19:57:59.697Z,15.93
2018-11-01T20:00:34.729Z,25.17
2018-11-01T20:03:10.393Z,32.83
2018-11-01T20:05:46.673Z,20.60
2018-11-01T20:08:22.027Z,26.17
2018-11-01T20:11:01.662Z,17.10
2018-11-01T20:13:39.249Z,17.30
2018-11-01T20:16:14.324Z,22.30
2018-11-01T20:18:49.615Z,22.20
2018-11-01T20:21:24.547Z,28.10
2018-11-01T20:23:59.565Z,22.40
2018-11-01T20:26:34.433Z,14.23
2018-11-01T20:29:09.438Z,21.90
2018-11-01T20:31:44.688Z,18.23
2018-11-01T20:34:19.685Z,21.90
2018-11-01T20:36:56.044Z,15.10
2018-11-01T20:39:32.287Z,13.50
2018-11-01T20:42:07.375Z,15.10
2018-11-01T20:44:42.526Z,15.13
2018-11-01T20:47:17.657Z,12.90
2018-11-01T20:49:52.471Z,26.43
2018-11-01T20:52:27.838Z,17.37
2018-11-01T20:55:03.603Z,14.80
2018-11-01T20:57:39.893Z,12.30
2018-11-01T21:00:15.574Z,20.93
2018-11-01T21:02:50.538Z,10.93
2018-11-01T21:05:25.631Z,12.50
2018-11-01T21:08:00.690Z,12.43
2018-11-01T21:10:35.680Z,13.87
2018-11-01T21:13:10.957Z,10.43
2018-11-01T21:15:47.714Z,7.07
2018-11-01T21:18:22.702Z,14.03
2018-11-01T21:20:58.634Z,18.43
2018-11-01T21:23:33.706Z,16.33
2018-11-01T21:26:08.743Z,9.50
2018-11-01T21:28:44.059Z,9.13
2018-11-01T21:31:18.888Z,10.53
2018-11-01T21:33:54.409Z,13.20
2018-11-01T21:36:29.610Z,9.77
2018-11-01T21:39:06.683Z,16.33
2018-11-01T21:41:42.462Z,8.83
2018-11-01T21:44:17.776Z,14.50
2018-11-01T21:46:52.860Z,8.07
2018-11-01T21:49:28.889Z,13.00
2018-11-01T21:52:04.105Z,14.53
2018-11-01T21:54:38.928Z,10.40
2018-11-01T21:57:16.766Z,12.27
2018-11-01T21:59:51.797Z,15.87
2018-11-01T22:02:26.992Z,14.47
2018-11-01T22:05:02.128Z,8.37
2018-11-01T22:07:37.908Z,10.97
2018-11-01T22:10:13.689Z,10.47
2018-11-01T22:12:48.657Z,10.17
2018-11-01T22:15:24.096Z,8.73
2018-11-01T22:18:00.275Z,12.80
2018-11-01T22:20:35.633Z,6.73
2018-11-01T22:23:10.899Z,9.37
2018-11-01T22:25:51.277Z,7.90
2018-11-01T22:28:26.672Z,7.63
2018-11-01T22:31:01.644Z,8.57
2018-11-01T22:33:36.571Z,12.53
2018-11-01T22:36:11.749Z,9.07
2018-11-01T22:38:47.023Z,11.83
2018-11-01T22:41:22.020Z,7.70
2018-11-01T22:43:58.234Z,14.37
2018-11-01T22:46:33.325Z,8.13
2018-11-01T22:49:11.069Z,7.77
2018-11-01T22:51:47.028Z,8.57
2018-11-01T22:54:22.833Z,6.17
2018-11-01T22:56:59.290Z,9.73
2018-11-01T22:59:34.513Z,7.53
2018-11-01T23:02:09.620Z,4.80
2018-11-01T23:04:44.828Z,6.87
2018-11-01T23:07:19.817Z,11.30
2018-11-01T23:09:55.247Z,8.20
2018-11-01T23:12:30.356Z,12.00
2018-11-01T23:15:06.488Z,9.10
2018-11-01T23:17:42.724Z,12.40
2018-11-01T23:20:18.281Z,4.37
2018-11-01T23:22:53.313Z,10.00
2018-11-01T23:25:29.040Z,11.63
2018-11-01T23:28:04.260Z,10.30
2018-11-01T23:30:39.308Z,9.90
2018-11-01T23:33:14.653Z,9.23
2018-11-01T23:35:50.247Z,7.43
2018-11-01T23:38:30.392Z,9.57
2018-11-01T23:41:11.194Z,9.63
2018-11-01T23:43:55.752Z,9.47
2018-11-01T23:46:40.117Z,8.40
2018-11-01T23:49:18.907Z,8.17
2018-11-01T23:51:58.947Z,6.63
2018-11-01T23:54:34.069Z,9.93
2018-11-01T23:57:09.471Z,10.57
2018-11-01T23:59:48.882Z,8.07
